Time;durP1;ratioP1;P1;durP2;ratioP2;P2;SDS_P1;SDS_P2;PMS_P1;PMS_P2;Temp;Humidity;BMP_temperature;BMP_pressure;BME280_temperature;BME280_humidity;BME280_pressure;Samples;Min_cycle;Max_cycle;Signal;HPM_P1;HPM_P2
2023/12/01 00:01:53;;;;;;;6.27;3.70;;;;;;;;;;21056966;28;20265;-70
2023/12/01 00:11:55;;;;;;;4.50;3.33;;;;;;;;;;21065617;28;20257;-71
2023/12/01 00:21:57;;;;;;;5.03;3.23;;;;;;;;;;21056600;28;20224;-71
2023/12/01 00:31:59;;;;;;;4.80;3.33;;;;;;;;;;21062005;28;20203;-70
2023/12/01 00:42:01;;;;;;;6.07;3.73;;;;;;;;;;21062632;27;20913;-70
2023/12/01 00:52:04;;;;;;;5.07;2.87;;;;;;;;;;21102205;28;20258;-70
2023/12/01 01:02:08;;;;;;;4.27;2.50;;;;;;;;;;21066375;28;20280;-71
2023/12/01 01:12:10;;;;;;;5.63;3.40;;;;;;;;;;21049848;28;20760;-70
2023/12/01 01:22:12;;;;;;;5.47;3.47;;;;;;;;;;21056126;28;20296;-71
2023/12/01 01:32:14;;;;;;;4.47;3.30;;;;;;;;;;21063656;28;20245;-70
2023/12/01 01:42:16;;;;;;;3.97;2.23;;;;;;;;;;21069268;28;20288;-70
2023/12/01 01:52:17;;;;;;;3.93;2.60;;;;;;;;;;21062764;27;20216;-70
2023/12/01 02:02:19;;;;;;;6.50;3.93;;;;;;;;;;21079636;28;20674;-70
2023/12/01 02:12:21;;;;;;;3.73;2.83;;;;;;;;;;21057814;28;20276;-70
2023/12/01 02:22:23;;;;;;;4.43;3.20;;;;;;;;;;21042538;28;20687;-70
2023/12/01 02:32:25;;;;;;;5.33;3.43;;;;;;;;;;21067162;28;20215;-70
2023/12/01 02:42:26;;;;;;;5.13;2.93;;;;;;;;;;21026386;28;20219;-70
2023/12/01 02:52:28;;;;;;;3.50;2.80;;;;;;;;;;21080963;27;20281;-70
2023/12/01 03:02:30;;;;;;;2.73;2.30;;;;;;;;;;21058507;28;20701;-70
2023/12/01 03:12:32;;;;;;;6.47;3.97;;;;;;;;;;21025502;28;20228;-70
2023/12/01 03:22:34;;;;;;;5.03;3.20;;;;;;;;;;21037738;28;20281;-70
2023/12/01 03:32:35;;;;;;;5.17;3.30;;;;;;;;;;21079267;28;20674;-70
2023/12/01 03:42:39;;;;;;;4.43;3.33;;;2.00;99.90;;;;;;21059515;28;20212;-70
2023/12/01 03:52:42;;;;;;;5.77;3.87;;;2.00;99.90;;;;;;21086069;28;20576;-70
2023/12/01 04:02:46;;;;;;;5.87;3.43;;;;;;;;;;21105921;28;20208;-70
2023/12/01 04:12:48;;;;;;;3.73;2.50;;;;;;;;;;21051345;28;20212;-70
2023/12/01 04:22:52;;;;;;;5.10;3.40;;;2.00;99.90;;;;;;21060257;28;20220;-70
2023/12/01 04:32:55;;;;;;;5.90;3.90;;;;;;;;;;21080929;28;20280;-69
2023/12/01 04:42:57;;;;;;;5.97;4.43;;;1.90;99.90;;;;;;21055954;28;20215;-70
2023/12/01 04:53:01;;;;;;;6.63;3.97;;;1.90;99.90;;;;;;21026720;28;20213;-70
2023/12/01 05:03:05;;;;;;;5.57;3.53;;;1.90;99.90;;;;;;21056317;28;20289;-70
2023/12/01 05:13:07;;;;;;;6.00;4.30;;;1.70;99.90;;;;;;21083565;28;20591;-70
2023/12/01 05:23:09;;;;;;;6.57;3.50;;;;;;;;;;21046058;28;20216;-70
2023/12/01 05:33:11;;;;;;;6.90;4.07;;;;;;;;;;21069358;28;20261;-70
2023/12/01 05:43:13;;;;;;;5.93;3.60;;;;;;;;;;21051728;28;20236;-70
2023/12/01 05:53:18;;;;;;;6.63;4.17;;;;;;;;;;21055545;28;20204;-69
2023/12/01 06:03:20;;;;;;;5.00;4.10;;;;;;;;;;21044264;28;20216;-69
2023/12/01 06:13:22;;;;;;;4.17;3.03;;;;;;;;;;21044564;28;20220;-69
2023/12/01 06:23:23;;;;;;;3.53;2.67;;;;;;;;;;21065372;27;20293;-70
2023/12/01 06:33:26;;;;;;;3.27;2.43;;;;;;;;;;21034268;28;20273;-69
2023/12/01 06:43:30;;;;;;;3.60;2.30;;;;;;;;;;21069674;28;20216;-69
2023/12/01 06:53:32;;;;;;;2.80;1.60;;;;;;;;;;21046485;28;20231;-69
2023/12/01 07:03:34;;;;;;;2.20;1.70;;;;;;;;;;21047684;28;20220;-69
2023/12/01 07:13:35;;;;;;;3.63;2.23;;;;;;;;;;21030656;28;20220;-70
2023/12/01 07:23:40;;;;;;;2.80;2.17;;;;;;;;;;21055317;28;20594;-70
2023/12/01 07:33:42;;;;;;;1.83;1.40;;;;;;;;;;20979622;22;20611;-87
2023/12/01 07:43:43;;;;;;;1.93;1.43;;;;;;;;;;20916316;28;20244;-87
2023/12/01 07:53:45;;;;;;;2.90;2.07;;;;;;;;;;20906263;28;20206;-86
2023/12/01 08:03:47;;;;;;;2.03;1.67;;;;;;;;;;20884731;28;20214;-86
2023/12/01 08:13:49;;;;;;;2.50;1.47;;;;;;;;;;20883411;28;20205;-86
2023/12/01 08:23:51;;;;;;;3.47;2.13;;;;;;;;;;20899342;28;20214;-85
2023/12/01 08:33:53;;;;;;;3.77;2.50;;;;;;;;;;20908805;28;20234;-85
2023/12/01 08:43:54;;;;;;;2.83;2.00;;;;;;;;;;20905032;28;20753;-86
2023/12/01 08:53:56;;;;;;;4.27;2.20;;;;;;;;;;20875114;28;20509;-85
2023/12/01 09:03:58;;;;;;;4.57;2.37;;;;;;;;;;20906779;28;20276;-85
2023/12/01 09:14:00;;;;;;;2.47;1.87;;;;;;;;;;20911937;28;20270;-86
2023/12/01 09:24:01;;;;;;;3.53;2.13;;;;;;;;;;20942171;28;20233;-86
2023/12/01 09:34:03;;;;;;;4.73;3.10;;;;;;;;;;20905736;28;20245;-85
2023/12/01 09:44:06;;;;;;;3.30;2.50;;;;;;;;;;20915307;28;20243;-88
2023/12/01 09:54:07;;;;;;;3.73;2.60;;;;;;;;;;20910793;28;20214;-86
2023/12/01 10:04:09;;;;;;;3.60;2.20;;;;;;;;;;20911334;28;20229;-86
2023/12/01 10:14:11;;;;;;;4.03;2.47;;;;;;;;;;20899367;28;20213;-86
2023/12/01 10:24:20;;;;;;;3.20;2.20;;;;;;;;;;20889641;28;20221;-87
2023/12/01 10:34:22;;;;;;;4.23;2.83;;;;;;;;;;20931926;28;20278;-88
2023/12/01 10:44:28;;;;;;;3.00;2.53;;;;;;;;;;20926006;28;20813;-87
2023/12/01 10:54:30;;;;;;;3.83;2.63;;;;;;;;;;20894314;28;20224;-86
2023/12/01 11:04:33;;;;;;;5.20;2.80;;;;;;;;;;20956733;28;20256;-88
2023/12/01 11:14:36;;;;;;;4.07;2.73;;;;;;;;;;20923167;28;20747;-87
2023/12/01 11:24:45;;;;;;;3.53;2.23;;;;;;;;;;20914125;28;20584;-87
2023/12/01 11:35:07;;;;;;;4.20;2.73;;;;;;;;;;20906723;28;20276;-86
2023/12/01 11:45:15;;;;;;;3.97;2.63;;;;;;;;;;20904830;28;20288;-87
2023/12/01 11:55:17;;;;;;;3.47;2.60;;;;;;;;;;20907655;28;20205;-86
2023/12/01 12:05:20;;;;;;;3.77;2.50;;;;;;;;;;20912151;28;20732;-86
2023/12/01 12:15:22;;;;;;;3.33;2.63;;;;;;;;;;20919120;28;20286;-86
2023/12/01 12:25:33;;;;;;;3.67;2.77;;;;;;;;;;20923039;28;20276;-84
2023/12/01 12:35:35;;;;;;;5.07;3.70;;;;;;;;;;20930225;28;20223;-85
2023/12/01 12:45:37;;;;;;;5.70;3.17;;;;;;;;;;20917218;28;20227;-85
2023/12/01 12:55:39;;;;;;;5.47;3.13;;;;;;;;;;20878499;28;20206;-85
2023/12/01 13:05:41;;;;;;;3.10;2.43;;;;;;;;;;20905428;28;20295;-86
2023/12/01 13:15:43;;;;;;;6.70;3.40;;;;;;;;;;20921415;28;20209;-86
2023/12/01 13:25:45;;;;;;;3.43;2.73;;;;;;;;;;20916975;28;20209;-85
2023/12/01 13:35:46;;;;;;;6.10;3.80;;;;;;;;;;20903184;28;20222;-86
2023/12/01 13:45:48;;;;;;;2.63;1.87;;;;;;;;;;20901936;28;20221;-86
2023/12/01 13:55:50;;;;;;;16.30;2.57;;;;;;;;;;20904786;28;20213;-85
2023/12/01 14:05:52;;;;;;;2.43;1.63;;;;;;;;;;20897124;28;20820;-85
2023/12/01 14:15:54;;;;;;;3.30;2.43;;;;;;;;;;20928384;28;20218;-86
2023/12/01 14:25:56;;;;;;;6.68;3.55;;;;;;;;;;20883839;28;20432;-85
2023/12/01 14:36:02;;;;;;;4.75;3.42;;;;;;;;;;20890492;28;20435;-87
2023/12/01 14:56:38;;;;;;;4.97;3.50;;;;;;;;;;21395530;27;20927;-70
2023/12/01 15:06:40;;;;;;;3.37;2.20;;;;;;;;;;21279310;27;20286;-70
2023/12/01 15:16:42;;;;;;;4.67;3.00;;;;;;;;;;21268942;27;20420;-68
2023/12/01 15:26:45;;;;;;;8.30;2.77;;;2.40;99.90;;;;;;21271854;27;20267;-68
2023/12/01 15:36:47;;;;;;;2.67;1.90;;;;;;;;;;21285488;27;20210;-68
2023/12/01 15:46:48;;;;;;;2.20;1.73;;;;;;;;;;21255170;27;20210;-68
2023/12/01 15:56:50;;;;;;;4.57;2.13;;;;;;;;;;21269892;27;20198;-69
2023/12/01 16:06:52;;;;;;;3.37;2.40;;;;;;;;;;21232067;27;20260;-69
2023/12/01 16:16:55;;;;;;;3.47;2.60;;;;;;;;;;21178103;27;20237;-69
2023/12/01 16:26:56;;;;;;;6.00;1.90;;;;;;;;;;21251945;27;20261;-68
2023/12/01 16:36:58;;;;;;;3.50;2.23;;;;;;;;;;21272510;27;20225;-69
2023/12/01 16:47:00;;;;;;;2.93;2.10;;;;;;;;;;21056809;27;20251;-70
2023/12/01 16:57:02;;;;;;;2.50;1.60;;;;;;;;;;21245569;27;20207;-69
2023/12/01 17:07:04;;;;;;;3.10;1.67;;;;;;;;;;21150216;27;20245;-69
2023/12/01 17:17:06;;;;;;;3.77;2.47;;;;;;;;;;20993788;27;20238;-67
2023/12/01 17:27:08;;;;;;;3.93;2.40;;;;;;;;;;21241421;27;20274;-69
2023/12/01 17:37:10;;;;;;;3.53;2.27;;;;;;;;;;21270423;27;20215;-69
2023/12/01 17:47:12;;;;;;;3.70;2.20;;;;;;;;;;21267119;27;20211;-69
2023/12/01 17:57:13;;;;;;;3.20;2.03;;;;;;;;;;21279672;27;20214;-69
2023/12/01 18:07:16;;;;;;;3.33;2.23;;;;;;;;;;21281113;27;20703;-69
2023/12/01 18:17:18;;;;;;;4.27;2.80;;;;;;;;;;21215458;27;20210;-69
2023/12/01 18:27:23;;;;;;;3.47;2.50;;;;;;;;;;21225082;27;20222;-69
2023/12/01 18:37:25;;;;;;;3.67;2.50;;;;;;;;;;21227443;27;20240;-68
2023/12/01 18:47:27;;;;;;;2.57;1.97;;;;;;;;;;21249614;27;20270;-69
2023/12/01 18:57:29;;;;;;;3.17;1.90;;;;;;;;;;21233500;27;20603;-69
2023/12/01 19:07:33;;;;;;;3.17;2.00;;;;;;;;;;21295127;27;20279;-69
2023/12/01 19:17:35;;;;;;;2.93;2.00;;;;;;;;;;21254266;27;20338;-69
2023/12/01 19:27:37;;;;;;;2.73;2.00;;;;;;;;;;21273168;27;20237;-69
2023/12/01 19:37:41;;;;;;;2.40;1.93;;;;;;;;;;21237850;27;20231;-69
2023/12/01 19:47:43;;;;;;;2.80;1.83;;;;;;;;;;21241497;27;20271;-68
2023/12/01 19:57:45;;;;;;;2.77;1.93;;;;;;;;;;21227504;27;20202;-69
2023/12/01 20:07:47;;;;;;;2.60;1.87;;;;;;;;;;21207012;27;20279;-69
2023/12/01 20:17:48;;;;;;;2.90;2.27;;;;;;;;;;21229363;27;20673;-69
2023/12/01 20:27:50;;;;;;;3.30;1.70;;;;;;;;;;21233786;27;20215;-69
2023/12/01 20:37:53;;;;;;;2.23;1.70;;;;;;;;;;21250671;27;20226;-69
2023/12/01 20:47:55;;;;;;;2.93;1.90;;;;;;;;;;21221675;27;20227;-69
2023/12/01 20:57:57;;;;;;;3.27;1.97;;;;;;;;;;21215456;27;20215;-69
2023/12/01 21:07:58;;;;;;;6.43;2.10;;;;;;;;;;21202913;27;20218;-69
2023/12/01 21:18:00;;;;;;;3.47;2.60;;;;;;;;;;21238034;27;20263;-69
2023/12/01 21:28:02;;;;;;;2.83;2.20;;;;;;;;;;21142783;22;20240;-76
2023/12/01 21:38:04;;;;;;;2.23;1.67;;;;;;;;;;21081703;27;20229;-76
2023/12/01 21:48:07;;;;;;;3.23;1.90;;;1.40;99.90;;;;;;21044442;28;20225;-76
2023/12/01 21:58:09;;;;;;;3.77;2.10;;;;;;;;;;21047715;28;20217;-75
2023/12/01 22:08:11;;;;;;;2.33;1.67;;;;;;;;;;21024494;28;20306;-76
2023/12/01 22:18:12;;;;;;;2.60;1.93;;;;;;;;;;21041710;28;20273;-75
2023/12/01 22:28:15;;;;;;;2.77;1.90;;;;;;;;;;21042347;28;20217;-76
2023/12/01 22:38:17;;;;;;;2.30;1.60;;;;;;;;;;21052811;28;20278;-76
2023/12/01 22:48:19;;;;;;;3.40;2.40;;;;;;;;;;21034010;28;20286;-76
2023/12/01 22:58:21;;;;;;;3.17;2.00;;;;;;;;;;21046699;28;20249;-76
2023/12/01 23:08:22;;;;;;;3.33;2.10;;;;;;;;;;21039159;28;20205;-76
2023/12/01 23:18:24;;;;;;;3.87;2.37;;;;;;;;;;21040863;28;20216;-76
2023/12/01 23:28:26;;;;;;;2.50;2.00;;;;;;;;;;21055908;28;20277;-75
2023/12/01 23:38:27;;;;;;;2.27;1.97;;;1.10;99.90;;;;;;21061106;28;20255;-76
2023/12/01 23:48:29;;;;;;;2.87;1.77;;;;;;;;;;21052747;28;20753;-76
2023/12/01 23:58:31;;;;;;;2.17;1.63;;;;;;;;;;21051714;28;20224;-76
